createdAt,value
2018-12-17T00:00:39.155Z,100.90
2018-12-17T00:03:08.421Z,95.23
2018-12-17T00:05:41.752Z,164.93
2018-12-17T00:08:09.099Z,87.90
2018-12-17T00:10:38.400Z,70.00
2018-12-17T00:13:08.245Z,169.00
2018-12-17T00:15:37.467Z,137.20
2018-12-17T00:18:06.787Z,211.23
2018-12-17T00:20:36.038Z,153.23
2018-12-17T00:23:05.301Z,247.97
2018-12-17T00:25:34.514Z,126.77
2018-12-17T00:28:08.081Z,100.67
2018-12-17T00:30:34.997Z,172.33
2018-12-17T00:33:04.277Z,198.17
2018-12-17T00:35:33.544Z,181.70
2018-12-17T00:38:02.744Z,140.23
2018-12-17T00:40:33.082Z,120.87
2018-12-17T00:43:02.406Z,165.40
2018-12-17T00:45:31.753Z,183.27
2018-12-17T00:48:00.964Z,176.83
2018-12-17T00:50:30.198Z,207.33
2018-12-17T00:52:59.399Z,151.00
2018-12-17T00:55:28.653Z,193.73
2018-12-17T00:57:57.949Z,223.00
2018-12-17T01:00:27.409Z,325.17
2018-12-17T01:02:56.806Z,236.87
2018-12-17T01:05:26.198Z,196.13
2018-12-17T01:07:56.358Z,207.30
2018-12-17T01:10:25.943Z,313.33
2018-12-17T01:12:55.185Z,167.63
2018-12-17T01:15:24.430Z,253.00
2018-12-17T01:17:53.814Z,283.10
2018-12-17T01:20:23.047Z,104.00
2018-12-17T01:22:52.946Z,228.10
2018-12-17T01:25:22.220Z,124.47
2018-12-17T01:27:51.519Z,217.37
2018-12-17T01:30:20.796Z,106.13
2018-12-17T01:32:50.401Z,100.07
2018-12-17T01:35:19.705Z,126.83
2018-12-17T01:37:49.002Z,164.03
2018-12-17T01:40:18.332Z,106.53
2018-12-17T01:42:47.608Z,149.37
2018-12-17T01:45:16.818Z,143.50
2018-12-17T01:47:46.097Z,126.83
2018-12-17T01:50:15.434Z,130.47
2018-12-17T01:52:44.650Z,148.30
2018-12-17T01:55:14.485Z,144.37
2018-12-17T01:57:43.705Z,135.03
2018-12-17T02:00:13.115Z,111.83
2018-12-17T02:02:42.701Z,116.83
2018-12-17T02:05:12.133Z,109.87
2018-12-17T02:07:41.322Z,93.53
2018-12-17T02:10:10.823Z,93.33
2018-12-17T02:12:40.158Z,96.13
2018-12-17T02:15:09.573Z,89.17
2018-12-17T02:17:38.838Z,92.43
2018-12-17T02:20:08.590Z,81.90
2018-12-17T02:22:37.833Z,82.73
2018-12-17T02:25:07.358Z,86.57
2018-12-17T02:27:36.603Z,90.63
2018-12-17T02:30:07.265Z,107.97
2018-12-17T02:32:36.604Z,84.57
2018-12-17T02:35:06.300Z,87.60
2018-12-17T02:37:36.057Z,99.07
2018-12-17T02:40:07.062Z,81.23
2018-12-17T02:42:36.333Z,97.73
2018-12-17T02:45:06.316Z,96.20
2018-12-17T02:47:35.634Z,110.60
2018-12-17T02:50:06.070Z,106.43
2018-12-17T02:52:35.444Z,117.37
2018-12-17T02:55:05.390Z,112.83
2018-12-17T02:57:34.685Z,111.97
2018-12-17T03:00:04.988Z,112.70
2018-12-17T03:02:34.361Z,90.37
2018-12-17T03:05:04.105Z,89.97
2018-12-17T03:07:33.336Z,94.03
2018-12-17T03:10:02.641Z,84.40
2018-12-17T03:12:31.870Z,85.57
2018-12-17T03:15:01.228Z,72.53
2018-12-17T03:17:30.523Z,80.50
2018-12-17T03:19:59.747Z,57.53
2018-12-17T03:22:29.192Z,67.63
2018-12-17T03:24:58.481Z,56.70
2018-12-17T03:27:27.724Z,87.57
2018-12-17T03:29:56.950Z,72.03
2018-12-17T03:32:26.297Z,76.47
2018-12-17T03:34:55.708Z,74.43
2018-12-17T03:37:24.954Z,72.97
2018-12-17T03:39:54.182Z,75.63
2018-12-17T03:42:23.465Z,81.63
2018-12-17T03:44:52.768Z,84.33
2018-12-17T03:47:27.591Z,77.00
2018-12-17T03:49:56.822Z,75.60
2018-12-17T03:52:26.068Z,73.43
2018-12-17T03:54:55.578Z,88.93
2018-12-17T03:57:24.893Z,84.33
2018-12-17T03:59:54.136Z,77.43
2018-12-17T04:02:23.430Z,87.13
2018-12-17T04:04:53.028Z,96.43
2018-12-17T04:07:23.258Z,90.23
2018-12-17T04:09:52.501Z,95.77
2018-12-17T04:12:21.753Z,103.13
2018-12-17T04:14:51.822Z,83.73
2018-12-17T04:17:21.154Z,77.13
2018-12-17T04:19:50.406Z,80.70
2018-12-17T04:22:19.633Z,65.07
2018-12-17T04:24:48.875Z,71.53
2018-12-17T04:27:18.157Z,74.87
2018-12-17T04:29:47.403Z,78.77
2018-12-17T04:32:16.646Z,98.87
2018-12-17T04:34:45.892Z,96.57
2018-12-17T04:37:15.131Z,98.40
2018-12-17T04:39:44.380Z,84.83
2018-12-17T04:42:13.721Z,106.13
2018-12-17T04:44:43.002Z,101.53
2018-12-17T04:47:12.217Z,199.93
2018-12-17T04:49:41.453Z,139.07
2018-12-17T04:52:10.717Z,141.23
2018-12-17T04:54:40.056Z,302.67
2018-12-17T04:57:16.289Z,386.27
2018-12-17T04:59:45.578Z,136.73
2018-12-17T05:02:14.909Z,242.57
2018-12-17T05:04:44.145Z,362.80
2018-12-17T05:07:13.385Z,370.50
2018-12-17T05:09:44.402Z,302.83
2018-12-17T05:12:13.918Z,471.63
2018-12-17T05:14:43.221Z,234.37
2018-12-17T05:17:12.459Z,603.70
2018-12-17T05:19:41.700Z,419.90
2018-12-17T05:22:10.929Z,338.07
2018-12-17T05:24:40.165Z,406.17
2018-12-17T05:27:09.409Z,266.63
2018-12-17T05:29:38.678Z,459.33
2018-12-17T05:32:08.100Z,407.67
2018-12-17T05:34:37.365Z,427.37
2018-12-17T05:37:06.881Z,276.10
2018-12-17T05:39:36.103Z,316.23
2018-12-17T05:42:05.504Z,75.30
2018-12-17T05:44:34.718Z,236.23
2018-12-17T05:47:04.053Z,306.67
2018-12-17T05:49:33.254Z,350.40
2018-12-17T05:52:02.509Z,494.60
2018-12-17T05:54:31.794Z,316.90
2018-12-17T05:57:01.029Z,258.93
2018-12-17T05:59:30.252Z,401.63
2018-12-17T06:01:59.486Z,445.80
2018-12-17T06:04:28.777Z,574.57
2018-12-17T06:06:58.053Z,307.20
2018-12-17T06:09:27.687Z,309.73
2018-12-17T06:11:57.126Z,85.60
2018-12-17T06:14:26.349Z,479.73
2018-12-17T06:16:56.203Z,301.87
2018-12-17T06:19:25.442Z,467.50
2018-12-17T06:21:54.679Z,272.43
2018-12-17T06:24:23.937Z,261.10
2018-12-17T06:26:53.217Z,217.80
2018-12-17T06:29:22.518Z,215.03
2018-12-17T06:31:51.769Z,168.20
2018-12-17T06:34:21.010Z,276.80
2018-12-17T06:36:50.250Z,177.03
2018-12-17T06:39:19.718Z,89.23
2018-12-17T06:41:49.041Z,115.60
2018-12-17T06:44:18.334Z,100.60
2018-12-17T06:46:47.565Z,78.40
2018-12-17T06:49:16.857Z,351.07
2018-12-17T06:51:46.365Z,232.70
2018-12-17T06:54:15.802Z,596.17
2018-12-17T06:56:45.164Z,241.40
2018-12-17T06:59:14.396Z,395.70
2018-12-17T07:01:43.643Z,285.27
2018-12-17T07:04:12.867Z,502.70
2018-12-17T07:06:42.202Z,216.10
2018-12-17T07:09:11.434Z,310.53
2018-12-17T07:11:40.669Z,356.90
2018-12-17T07:14:09.922Z,92.60
2018-12-17T07:16:39.163Z,184.37
2018-12-17T07:19:08.413Z,123.83
2018-12-17T07:21:37.658Z,300.53
2018-12-17T07:24:06.921Z,222.00
2018-12-17T07:26:36.181Z,135.13
2018-12-17T07:29:05.506Z,190.37
2018-12-17T07:31:34.886Z,227.80
2018-12-17T07:34:04.311Z,182.37
2018-12-17T07:36:33.764Z,138.20
2018-12-17T07:39:03.702Z,177.97
2018-12-17T07:41:33.053Z,135.57
2018-12-17T07:44:02.301Z,103.37
2018-12-17T07:46:31.575Z,81.47
2018-12-17T07:49:00.819Z,102.73
2018-12-17T07:51:30.132Z,121.47
2018-12-17T07:53:59.367Z,134.60
2018-12-17T07:56:29.279Z,82.07
2018-12-17T07:58:58.507Z,72.57
2018-12-17T08:01:28.249Z,70.20
2018-12-17T08:03:57.495Z,78.57
2018-12-17T08:06:26.721Z,64.20
2018-12-17T08:08:55.938Z,69.97
2018-12-17T08:11:25.234Z,238.53
2018-12-17T08:13:54.557Z,90.30
2018-12-17T08:16:23.812Z,71.47
2018-12-17T08:18:53.041Z,159.00
2018-12-17T08:21:22.338Z,141.13
2018-12-17T08:23:51.576Z,174.63
2018-12-17T08:26:20.895Z,116.73
2018-12-17T08:28:50.405Z,170.33
2018-12-17T08:31:19.798Z,97.03
2018-12-17T08:33:49.111Z,249.03
2018-12-17T08:36:18.415Z,202.37
2018-12-17T08:38:47.669Z,62.37
2018-12-17T08:41:16.885Z,81.87
2018-12-17T08:43:46.282Z,92.50
2018-12-17T08:46:15.515Z,56.30
2018-12-17T08:48:44.859Z,74.10
2018-12-17T08:51:14.154Z,67.23
2018-12-17T08:53:43.377Z,229.77
2018-12-17T08:56:12.678Z,257.77
2018-12-17T08:58:41.995Z,200.30
2018-12-17T09:01:11.219Z,134.27
2018-12-17T09:03:40.647Z,189.93
2018-12-17T09:06:09.958Z,275.17
2018-12-17T09:08:39.198Z,136.67
2018-12-17T09:11:08.434Z,164.17
2018-12-17T09:16:37.693Z,274.70
2018-12-17T09:19:06.912Z,95.77
2018-12-17T09:21:36.225Z,93.67
2018-12-17T09:24:05.745Z,74.23
2018-12-17T09:26:35.181Z,85.80
2018-12-17T09:29:04.664Z,80.67
2018-12-17T09:31:34.047Z,78.23
2018-12-17T09:34:03.341Z,77.80
2018-12-17T09:36:32.549Z,88.90
2018-12-17T09:39:01.762Z,73.00
2018-12-17T09:41:31.862Z,52.97
2018-12-17T09:44:01.075Z,53.87
2018-12-17T09:46:31.542Z,75.70
2018-12-17T09:49:00.843Z,51.43
2018-12-17T09:51:30.150Z,47.77
2018-12-17T09:53:59.449Z,52.37
2018-12-17T09:56:28.705Z,57.47
2018-12-17T09:58:58.047Z,63.17
2018-12-17T10:01:27.246Z,60.80
2018-12-17T10:03:56.450Z,51.40
2018-12-17T10:06:25.777Z,54.77
2018-12-17T10:08:55.005Z,46.60
2018-12-17T10:11:24.253Z,53.73
2018-12-17T10:13:53.669Z,48.70
2018-12-17T10:16:22.892Z,52.93
2018-12-17T10:18:52.120Z,57.07
2018-12-17T10:21:21.335Z,56.50
2018-12-17T10:23:50.644Z,57.83
2018-12-17T10:26:19.868Z,61.43
2018-12-17T10:28:49.250Z,56.43
2018-12-17T10:31:18.553Z,51.83
2018-12-17T10:33:47.841Z,56.53
2018-12-17T10:36:17.089Z,49.47
2018-12-17T10:38:46.589Z,51.67
2018-12-17T10:41:15.829Z,46.73
2018-12-17T10:43:45.502Z,53.07
2018-12-17T10:46:14.817Z,54.53
2018-12-17T10:48:44.357Z,52.63
2018-12-17T10:51:13.604Z,55.27
2018-12-17T10:53:43.222Z,54.57
2018-12-17T10:56:12.554Z,52.67
2018-12-17T10:58:42.067Z,52.40
2018-12-17T11:01:16.520Z,60.77
2018-12-17T11:06:51.275Z,55.40
2018-12-17T11:09:20.503Z,60.93
2018-12-17T11:11:50.783Z,62.67
2018-12-17T11:14:20.109Z,54.80
2018-12-17T11:16:49.394Z,52.90
2018-12-17T11:19:18.705Z,63.37
2018-12-17T11:21:48.178Z,58.37
2018-12-17T11:24:17.439Z,63.43
2018-12-17T11:26:46.825Z,59.10
2018-12-17T11:29:17.286Z,57.13
2018-12-17T11:31:46.676Z,55.70
2018-12-17T11:34:15.926Z,54.37
2018-12-17T11:36:45.378Z,57.53
2018-12-17T11:39:14.952Z,52.93
2018-12-17T11:41:44.216Z,58.23
2018-12-17T11:44:13.550Z,51.23
2018-12-17T11:46:44.508Z,51.30
2018-12-17T11:49:13.783Z,51.60
2018-12-17T11:51:43.243Z,49.57
2018-12-17T11:54:12.619Z,52.00
2018-12-17T11:57:02.371Z,51.07
2018-12-17T11:59:31.635Z,55.03
2018-12-17T12:02:00.981Z,57.73
2018-12-17T12:04:30.208Z,54.63
2018-12-17T12:06:59.469Z,52.60
2018-12-17T12:12:30.324Z,57.27
2018-12-17T12:15:00.274Z,51.30
2018-12-17T12:17:31.089Z,53.47
2018-12-17T12:20:00.347Z,53.50
2018-12-17T12:22:29.669Z,52.23
2018-12-17T12:24:58.905Z,42.93
2018-12-17T12:27:28.296Z,45.63
2018-12-17T12:29:57.913Z,43.07
2018-12-17T12:32:27.273Z,43.43
2018-12-17T12:34:56.602Z,43.23
2018-12-17T12:37:25.905Z,45.40
2018-12-17T12:39:55.130Z,44.70
2018-12-17T12:42:24.370Z,44.57
2018-12-17T12:44:53.597Z,45.40
2018-12-17T12:47:23.029Z,47.03
2018-12-17T12:49:52.239Z,53.03
2018-12-17T12:52:21.510Z,47.70
2018-12-17T12:54:50.821Z,50.90
2018-12-17T12:57:20.050Z,47.50
2018-12-17T12:59:49.286Z,51.87
2018-12-17T13:02:18.597Z,47.53
2018-12-17T13:04:47.917Z,46.63
2018-12-17T13:07:17.326Z,47.30
2018-12-17T13:09:46.599Z,51.47
2018-12-17T13:12:15.849Z,50.73
2018-12-17T13:14:45.270Z,44.43
2018-12-17T13:17:19.807Z,44.13
2018-12-17T13:19:49.216Z,47.20
2018-12-17T13:22:18.434Z,47.00
2018-12-17T13:24:47.693Z,48.60
2018-12-17T13:27:16.975Z,46.83
2018-12-17T13:29:46.202Z,54.07
2018-12-17T13:32:15.537Z,48.07
2018-12-17T13:34:44.767Z,48.13
2018-12-17T13:37:13.986Z,48.00
2018-12-17T13:39:43.366Z,56.37
2018-12-17T13:42:12.665Z,60.23
2018-12-17T13:44:42.114Z,51.17
2018-12-17T13:47:12.472Z,56.00
2018-12-17T13:49:41.715Z,51.33
2018-12-17T13:52:16.238Z,57.70
2018-12-17T13:54:45.438Z,55.83
2018-12-17T13:57:15.085Z,55.73
2018-12-17T13:59:44.813Z,59.67
2018-12-17T14:02:14.449Z,54.40
2018-12-17T14:04:43.674Z,59.73
2018-12-17T14:07:12.894Z,57.97
2018-12-17T14:09:47.405Z,58.53
2018-12-17T14:12:16.754Z,62.60
2018-12-17T14:14:46.057Z,56.13
2018-12-17T14:17:20.749Z,55.33
2018-12-17T14:19:54.828Z,62.40
2018-12-17T14:22:24.387Z,54.50
2018-12-17T14:24:53.697Z,58.17
2018-12-17T14:27:22.917Z,63.93
2018-12-17T14:29:52.236Z,88.60
2018-12-17T14:32:21.451Z,67.27
2018-12-17T14:34:50.770Z,65.83
2018-12-17T14:37:20.003Z,69.23
2018-12-17T14:39:49.234Z,62.87
2018-12-17T14:42:18.563Z,59.80
2018-12-17T14:44:47.932Z,59.20
2018-12-17T14:47:17.228Z,69.47
2018-12-17T14:49:47.049Z,58.20
2018-12-17T14:52:17.370Z,56.63
2018-12-17T14:54:47.009Z,58.97
2018-12-17T14:57:16.349Z,63.07
2018-12-17T14:59:45.641Z,67.63
2018-12-17T15:02:14.894Z,61.30
2018-12-17T15:04:44.236Z,59.87
2018-12-17T15:07:13.644Z,60.70
2018-12-17T15:09:42.857Z,59.63
2018-12-17T15:12:12.114Z,57.17
2018-12-17T15:14:41.481Z,60.17
2018-12-17T15:17:10.745Z,58.50
2018-12-17T15:19:39.968Z,55.67
2018-12-17T15:22:09.205Z,54.87
2018-12-17T15:24:40.440Z,54.87
2018-12-17T15:27:09.690Z,62.53
2018-12-17T15:29:38.980Z,60.20
2018-12-17T15:32:08.419Z,59.37
2018-12-17T15:34:37.888Z,70.90
2018-12-17T15:37:07.185Z,70.40
2018-12-17T15:39:36.421Z,82.70
2018-12-17T15:42:05.942Z,87.90
2018-12-17T15:44:35.241Z,75.47
2018-12-17T15:47:04.484Z,66.87
2018-12-17T15:49:33.809Z,69.47
2018-12-17T15:52:03.059Z,63.67
2018-12-17T15:54:32.586Z,57.97
2018-12-17T15:57:01.825Z,53.33
2018-12-17T15:59:31.977Z,59.70
2018-12-17T16:02:01.190Z,69.30
2018-12-17T16:04:30.486Z,80.30
2018-12-17T16:06:59.721Z,61.20
2018-12-17T16:09:28.937Z,70.77
2018-12-17T16:11:58.245Z,64.80
2018-12-17T16:14:27.502Z,60.63
2018-12-17T16:16:56.757Z,57.50
2018-12-17T16:19:25.977Z,59.93
2018-12-17T16:21:55.249Z,56.77
2018-12-17T16:24:24.458Z,50.03
2018-12-17T16:26:53.701Z,61.80
2018-12-17T16:29:22.960Z,53.87
2018-12-17T16:31:57.536Z,48.83
2018-12-17T16:34:26.527Z,54.47
2018-12-17T16:36:56.131Z,50.97
2018-12-17T16:39:26.194Z,76.83
2018-12-17T16:41:56.037Z,58.73
2018-12-17T16:44:25.302Z,55.57
2018-12-17T16:46:54.596Z,58.83
2018-12-17T16:49:23.811Z,50.07
2018-12-17T16:51:53.119Z,51.70
2018-12-17T16:54:22.676Z,51.57
2018-12-17T16:56:51.919Z,49.87
2018-12-17T16:59:21.216Z,51.23
2018-12-17T17:01:50.437Z,64.63
2018-12-17T17:04:19.657Z,57.60
2018-12-17T17:06:48.937Z,52.93
2018-12-17T17:09:18.478Z,44.20
2018-12-17T17:11:47.761Z,46.23
2018-12-17T17:14:17.004Z,48.27
2018-12-17T17:16:46.731Z,47.23
2018-12-17T17:19:16.076Z,47.67
2018-12-17T17:21:45.759Z,49.03
2018-12-17T17:24:15.080Z,52.60
2018-12-17T17:26:44.351Z,52.90
2018-12-17T17:29:13.569Z,50.93
2018-12-17T17:31:42.879Z,48.93
2018-12-17T17:34:12.099Z,48.43
2018-12-17T17:36:41.302Z,49.20
2018-12-17T17:39:10.590Z,49.97
2018-12-17T17:44:38.195Z,59.50
2018-12-17T17:47:07.626Z,57.43
2018-12-17T17:49:36.836Z,57.83
2018-12-17T17:52:06.282Z,52.57
2018-12-17T17:54:35.523Z,51.57
2018-12-17T17:57:05.019Z,54.97
2018-12-17T17:59:34.269Z,56.07
2018-12-17T18:02:03.768Z,48.20
2018-12-17T18:04:33.142Z,56.63
2018-12-17T18:07:02.442Z,53.53
2018-12-17T18:09:31.663Z,63.73
2018-12-17T18:12:00.976Z,82.27
2018-12-17T18:14:30.226Z,82.93
2018-12-17T18:16:59.550Z,76.43
2018-12-17T18:19:28.801Z,56.30
2018-12-17T18:21:58.041Z,55.90
2018-12-17T18:24:27.263Z,56.10
2018-12-17T18:26:56.497Z,56.50
2018-12-17T18:29:25.730Z,58.00
2018-12-17T18:31:55.040Z,59.50
2018-12-17T18:34:24.292Z,55.30
2018-12-17T18:36:53.531Z,57.57
2018-12-17T18:39:23.554Z,60.83
2018-12-17T18:41:52.773Z,63.30
2018-12-17T18:44:22.184Z,52.60
2018-12-17T18:46:51.420Z,56.63
2018-12-17T18:49:20.671Z,53.63
2018-12-17T18:51:50.165Z,56.20
2018-12-17T18:54:19.483Z,63.43
2018-12-17T18:56:48.909Z,60.10
2018-12-17T18:59:18.265Z,79.03
2018-12-17T19:01:47.693Z,98.80
2018-12-17T19:04:17.003Z,82.83
2018-12-17T19:06:46.286Z,59.83
2018-12-17T19:09:15.641Z,56.10
2018-12-17T19:11:44.979Z,66.17
2018-12-17T19:14:14.345Z,61.73
2018-12-17T19:16:43.668Z,60.60
2018-12-17T19:19:13.126Z,67.30
2018-12-17T19:21:42.687Z,55.83
2018-12-17T19:24:12.026Z,60.37
2018-12-17T19:26:41.363Z,63.13
2018-12-17T19:29:10.827Z,63.93
2018-12-17T19:31:40.176Z,62.93
2018-12-17T19:34:09.435Z,68.47
2018-12-17T19:36:38.800Z,62.50
2018-12-17T19:39:09.026Z,61.63
2018-12-17T19:41:38.384Z,53.50
2018-12-17T19:44:07.737Z,58.67
2018-12-17T19:46:37.074Z,63.47
2018-12-17T19:49:06.536Z,63.47
2018-12-17T19:51:35.980Z,53.53
2018-12-17T19:54:05.635Z,54.80
2018-12-17T19:56:34.999Z,63.93
2018-12-17T19:59:05.084Z,56.50
2018-12-17T20:01:34.707Z,56.30
2018-12-17T20:07:05.709Z,79.50
2018-12-17T20:09:35.102Z,73.83
2018-12-17T20:12:04.743Z,63.57
2018-12-17T20:14:34.045Z,63.10
2018-12-17T20:17:03.448Z,55.33
2018-12-17T20:19:32.817Z,63.63
2018-12-17T20:22:02.297Z,55.93
2018-12-17T20:24:31.710Z,53.03
2018-12-17T20:27:01.010Z,46.53
2018-12-17T20:29:30.426Z,52.80
2018-12-17T20:31:59.768Z,73.63
2018-12-17T20:34:29.163Z,55.33
2018-12-17T20:36:58.490Z,62.73
2018-12-17T20:39:28.684Z,64.13
2018-12-17T20:41:58.129Z,60.17
2018-12-17T20:44:27.449Z,54.07
2018-12-17T20:46:56.964Z,54.37
2018-12-17T20:49:26.382Z,59.03
2018-12-17T20:51:55.761Z,56.07
2018-12-17T20:54:25.037Z,55.47
2018-12-17T20:56:54.429Z,61.07
2018-12-17T20:59:23.731Z,57.63
2018-12-17T21:01:53.019Z,53.23
2018-12-17T21:04:22.453Z,62.00
2018-12-17T21:06:51.770Z,52.20
2018-12-17T21:09:21.073Z,57.03
2018-12-17T21:11:50.342Z,52.43
2018-12-17T21:14:23.613Z,51.30
2018-12-17T21:16:51.308Z,53.47
2018-12-17T21:19:20.870Z,49.70
2018-12-17T21:21:50.218Z,56.47
2018-12-17T21:24:20.001Z,65.33
2018-12-17T21:26:49.291Z,53.97
2018-12-17T21:29:18.659Z,58.53
2018-12-17T21:31:48.014Z,72.80
2018-12-17T21:34:17.475Z,66.37
2018-12-17T21:36:46.949Z,61.87
2018-12-17T21:39:16.332Z,61.93
2018-12-17T21:41:45.648Z,58.60
2018-12-17T21:44:15.115Z,57.17
2018-12-17T21:46:44.607Z,59.93
2018-12-17T21:49:14.621Z,59.63
2018-12-17T21:51:43.934Z,52.10
2018-12-17T21:54:13.367Z,58.87
2018-12-17T21:56:42.746Z,58.40
2018-12-17T21:59:12.058Z,59.17
2018-12-17T22:01:41.409Z,50.10
2018-12-17T22:04:10.879Z,55.37
2018-12-17T22:06:40.593Z,48.50
2018-12-17T22:09:10.002Z,50.87
2018-12-17T22:11:39.350Z,55.00
2018-12-17T22:14:08.758Z,58.13
2018-12-17T22:16:38.061Z,59.60
2018-12-17T22:19:07.558Z,57.43
2018-12-17T22:21:36.936Z,58.20
2018-12-17T22:24:06.266Z,70.93
2018-12-17T22:26:35.535Z,71.47
2018-12-17T22:29:05.583Z,68.23
2018-12-17T22:31:34.930Z,74.27
2018-12-17T22:34:04.857Z,66.70
2018-12-17T22:36:34.273Z,60.40
2018-12-17T22:39:05.572Z,59.47
2018-12-17T22:41:34.893Z,57.07
2018-12-17T22:44:04.597Z,50.93
2018-12-17T22:46:34.058Z,45.83
2018-12-17T22:49:03.469Z,48.87
2018-12-17T22:51:32.759Z,42.17
2018-12-17T22:54:02.532Z,48.30
2018-12-17T22:56:31.813Z,47.53
2018-12-17T23:02:03.987Z,50.30
2018-12-17T23:04:33.300Z,53.53
2018-12-17T23:07:02.789Z,59.87
2018-12-17T23:09:49.125Z,55.70
2018-12-17T23:12:35.421Z,50.83
2018-12-17T23:15:21.702Z,53.30
2018-12-17T23:17:49.537Z,51.17
2018-12-17T23:20:19.492Z,51.20
2018-12-17T23:22:48.991Z,58.03
2018-12-17T23:25:18.268Z,57.97
2018-12-17T23:27:51.349Z,52.03
2018-12-17T23:30:23.350Z,56.93
2018-12-17T23:32:52.694Z,52.07
2018-12-17T23:35:21.990Z,52.00
2018-12-17T23:37:51.334Z,54.87
2018-12-17T23:40:20.678Z,60.77
2018-12-17T23:42:50.045Z,56.13
2018-12-17T23:45:21.489Z,78.93
2018-12-17T23:47:51.378Z,84.30
2018-12-17T23:50:20.741Z,62.43
2018-12-17T23:52:50.017Z,57.20
2018-12-17T23:55:19.340Z,52.70
2018-12-17T23:57:50.050Z,49.37
